createdAt,value
2019-04-11T00:01:54.735Z,34.70
2019-04-11T00:04:21.972Z,34.80
2019-04-11T00:06:48.244Z,34.90
2019-04-11T00:09:16.695Z,34.90
2019-04-11T00:11:44.118Z,34.90
2019-04-11T00:14:11.852Z,35.00
2019-04-11T00:16:37.986Z,35.10
2019-04-11T00:19:05.228Z,35.20
2019-04-11T00:21:32.961Z,35.20
2019-04-11T00:23:59.168Z,35.20
2019-04-11T00:26:26.412Z,35.30
2019-04-11T00:28:52.752Z,35.40
2019-04-11T00:31:18.996Z,35.50
2019-04-11T00:33:45.149Z,35.50
2019-04-11T00:36:12.346Z,35.60
2019-04-11T00:38:38.732Z,35.60
2019-04-11T00:41:05.831Z,35.60
2019-04-11T00:43:37.647Z,35.70
2019-04-11T00:46:01.528Z,35.80
2019-04-11T00:48:28.306Z,35.80
2019-04-11T00:50:54.482Z,35.90
2019-04-11T00:53:20.632Z,36.00
2019-04-11T00:55:48.024Z,36.10
2019-04-11T00:58:14.388Z,36.10
2019-04-11T01:00:40.543Z,36.20
2019-04-11T01:03:06.707Z,36.30
2019-04-11T01:05:33.819Z,36.40
2019-04-11T01:08:00.456Z,36.40
2019-04-11T01:10:26.719Z,36.40
2019-04-11T01:12:53.194Z,36.40
2019-04-11T01:15:21.626Z,36.60
2019-04-11T01:17:47.816Z,36.60
2019-04-11T01:20:15.310Z,36.70
2019-04-11T01:22:42.426Z,36.70
2019-04-11T01:25:09.021Z,37.30
2019-04-11T01:27:36.179Z,36.80
2019-04-11T01:30:06.194Z,36.30
2019-04-11T01:32:32.592Z,36.90
2019-04-11T01:34:59.203Z,37.00
2019-04-11T01:37:26.001Z,37.10
2019-04-11T01:39:59.910Z,37.20
2019-04-11T01:42:27.050Z,37.20
2019-04-11T01:44:53.265Z,37.20
2019-04-11T01:47:22.535Z,37.90
2019-04-11T01:49:48.707Z,37.30
2019-04-11T01:52:15.062Z,37.40
2019-04-11T01:54:41.322Z,37.40
2019-04-11T01:57:07.601Z,37.50
2019-04-11T01:59:33.732Z,37.60
2019-04-11T02:02:05.387Z,37.70
2019-04-11T02:04:40.419Z,37.70
2019-04-11T02:07:06.971Z,37.70
2019-04-11T02:09:33.104Z,37.60
2019-04-11T02:11:59.266Z,37.70
2019-04-11T02:14:25.795Z,37.70
2019-04-11T02:16:53.360Z,37.80
2019-04-11T02:19:20.391Z,37.80
2019-04-11T02:21:47.714Z,37.90
2019-04-11T02:24:15.785Z,38.00
2019-04-11T02:26:46.536Z,37.90
2019-04-11T02:29:13.013Z,37.90
2019-04-11T02:31:39.240Z,38.10
2019-04-11T02:34:06.425Z,38.20
2019-04-11T02:36:34.286Z,38.10
2019-04-11T02:39:09.921Z,38.20
2019-04-11T02:41:35.281Z,38.70
2019-04-11T02:44:11.618Z,38.40
2019-04-11T02:46:42.673Z,38.50
2019-04-11T02:49:03.082Z,38.50
2019-04-11T02:51:31.129Z,38.60
2019-04-11T02:53:58.952Z,38.60
2019-04-11T02:56:27.653Z,38.60
2019-04-11T02:58:54.712Z,38.70
2019-04-11T03:01:22.006Z,38.80
2019-04-11T03:03:49.853Z,38.90
2019-04-11T03:06:17.580Z,38.90
2019-04-11T03:08:46.475Z,39.10
2019-04-11T03:11:14.204Z,39.00
2019-04-11T03:13:42.211Z,39.10
2019-04-11T03:16:24.824Z,39.20
2019-04-11T03:18:54.931Z,39.30
2019-04-11T03:21:11.134Z,39.40
2019-04-11T03:23:35.407Z,39.40
2019-04-11T03:26:03.200Z,39.50
2019-04-11T03:28:31.313Z,39.60
2019-04-11T03:31:27.500Z,39.70
2019-04-11T03:34:13.093Z,39.80
2019-04-11T03:38:44.203Z,40.00
2019-04-11T03:41:10.342Z,40.00
2019-04-11T03:43:29.893Z,40.20
2019-04-11T03:46:10.527Z,40.20
2019-04-11T03:48:33.827Z,40.10
2019-04-11T03:50:46.866Z,40.10
2019-04-11T03:53:14.710Z,40.10
2019-04-11T03:55:41.117Z,40.10
2019-04-11T03:58:08.501Z,40.00
2019-04-11T04:00:38.365Z,40.10
2019-04-11T04:03:05.977Z,40.00
2019-04-11T04:05:36.241Z,39.90
2019-04-11T04:08:03.494Z,39.80
2019-04-11T04:10:31.803Z,39.90
2019-04-11T04:13:00.209Z,39.70
2019-04-11T04:15:44.238Z,39.70
2019-04-11T04:18:05.827Z,39.70
2019-04-11T04:20:39.416Z,39.70
2019-04-11T04:23:09.568Z,39.90
2019-04-11T04:25:36.891Z,39.90
2019-04-11T04:28:05.272Z,40.50
2019-04-11T04:30:33.538Z,39.90
2019-04-11T04:33:00.649Z,40.00
2019-04-11T04:35:28.408Z,40.00
2019-04-11T04:37:56.787Z,40.00
2019-04-11T04:40:42.473Z,40.10
2019-04-11T04:42:55.462Z,40.20
2019-04-11T04:45:21.485Z,40.20
2019-04-11T04:47:54.861Z,40.30
2019-04-11T04:50:15.852Z,40.30
2019-04-11T04:52:42.853Z,40.40
2019-04-11T04:55:10.613Z,40.50
2019-04-11T04:57:37.617Z,40.50
2019-04-11T05:00:07.142Z,40.50
2019-04-11T05:02:35.432Z,40.60
2019-04-11T05:05:04.268Z,40.60
2019-04-11T05:07:37.439Z,40.60
2019-04-11T05:10:00.937Z,40.70
2019-04-11T05:12:28.173Z,40.80
2019-04-11T05:14:55.969Z,40.30
2019-04-11T05:17:23.136Z,40.80
2019-04-11T05:19:49.557Z,41.10
2019-04-11T05:22:16.774Z,40.70
2019-04-11T05:24:43.363Z,40.50
2019-04-11T05:27:10.420Z,40.40
2019-04-11T05:29:37.629Z,40.00
2019-04-11T05:32:05.091Z,39.80
2019-04-11T05:34:31.331Z,39.50
2019-04-11T05:36:57.644Z,39.30
2019-04-11T05:39:23.852Z,39.10
2019-04-11T05:41:51.320Z,38.70
2019-04-11T05:44:18.759Z,38.50
2019-04-11T05:46:53.254Z,38.20
2019-04-11T05:49:36.150Z,38.10
2019-04-11T05:52:03.969Z,37.90
2019-04-11T05:54:33.216Z,37.80
2019-04-11T05:57:01.350Z,37.70
2019-04-11T05:59:28.346Z,37.70
2019-04-11T06:02:04.348Z,37.80
2019-04-11T06:04:51.927Z,37.80
2019-04-11T06:07:35.004Z,37.90
2019-04-11T06:10:08.473Z,38.00
2019-04-11T06:12:50.603Z,38.10
2019-04-11T06:15:20.345Z,38.10
2019-04-11T06:17:48.638Z,38.20
2019-04-11T06:20:19.938Z,38.10
2019-04-11T06:22:48.219Z,38.10
2019-04-11T06:25:19.440Z,38.00
2019-04-11T06:27:47.626Z,38.50
2019-04-11T06:30:18.597Z,37.70
2019-04-11T06:33:04.538Z,37.50
2019-04-11T06:35:35.857Z,37.50
2019-04-11T06:38:10.126Z,37.90
2019-04-11T06:40:51.125Z,37.30
2019-04-11T06:43:27.750Z,37.40
2019-04-11T06:45:56.536Z,37.40
2019-04-11T06:48:27.466Z,37.40
2019-04-11T06:50:59.670Z,37.60
2019-04-11T06:53:28.108Z,37.70
2019-04-11T06:56:12.729Z,37.50
2019-04-11T06:58:40.809Z,37.10
2019-04-11T07:01:09.805Z,36.70
2019-04-11T07:03:41.202Z,36.30
2019-04-11T07:06:09.253Z,35.80
2019-04-11T07:08:43.021Z,35.40
2019-04-11T07:11:23.597Z,35.10
2019-04-11T07:13:51.759Z,34.80
2019-04-11T07:16:18.614Z,34.20
2019-04-11T07:18:48.420Z,35.00
2019-04-11T07:21:14.999Z,33.60
2019-04-11T07:23:59.826Z,33.10
2019-04-11T07:26:35.041Z,32.50
2019-04-11T07:29:13.061Z,32.00
2019-04-11T07:31:44.321Z,31.50
2019-04-11T07:34:33.118Z,31.20
2019-04-11T07:37:06.704Z,30.60
2019-04-11T07:39:44.505Z,30.30
2019-04-11T07:42:27.946Z,30.00
2019-04-11T07:45:14.169Z,29.70
2019-04-11T07:48:00.774Z,29.80
2019-04-11T07:50:27.682Z,29.80
2019-04-11T07:53:03.065Z,29.70
2019-04-11T07:55:30.042Z,29.70
2019-04-11T07:58:21.636Z,29.70
2019-04-11T08:01:03.615Z,29.50
2019-04-11T08:03:41.214Z,29.60
2019-04-11T08:06:09.257Z,29.60
2019-04-11T08:08:47.124Z,29.50
2019-04-11T08:11:21.041Z,29.40
2019-04-11T08:14:08.336Z,29.30
2019-04-11T08:16:53.354Z,29.20
2019-04-11T08:19:33.382Z,29.20
2019-04-11T08:22:01.557Z,28.80
2019-04-11T08:24:36.598Z,52.90
2019-04-11T08:27:07.642Z,28.50
2019-04-11T08:29:34.053Z,28.40
2019-04-11T08:32:19.916Z,28.20
2019-04-11T08:34:59.951Z,28.10
2019-04-11T08:37:40.058Z,28.10
2019-04-11T08:40:09.398Z,27.70
2019-04-11T08:42:38.990Z,27.40
2019-04-11T08:45:08.170Z,26.60
2019-04-11T08:47:44.740Z,26.20
2019-04-11T08:50:06.108Z,25.70
2019-04-11T08:52:34.267Z,25.40
2019-04-11T08:55:02.393Z,25.00
2019-04-11T08:57:36.250Z,24.70
2019-04-11T09:00:26.291Z,24.10
2019-04-11T09:03:01.682Z,23.90
2019-04-11T09:05:39.070Z,23.70
2019-04-11T09:08:16.412Z,23.40
2019-04-11T09:10:50.811Z,23.40
2019-04-11T09:13:35.830Z,23.80
2019-04-11T09:16:21.583Z,24.10
2019-04-11T09:18:48.137Z,24.00
2019-04-11T09:21:34.102Z,24.10
2019-04-11T09:24:02.328Z,25.00
2019-04-11T09:26:47.855Z,25.60
2019-04-11T09:29:15.575Z,26.50
2019-04-11T09:31:49.134Z,26.60
2019-04-11T09:34:35.673Z,25.70
2019-04-11T09:37:04.881Z,24.80
2019-04-11T09:39:43.423Z,23.60
2019-04-11T09:42:20.139Z,23.10
2019-04-11T09:44:48.930Z,22.90
2019-04-11T09:47:17.324Z,22.90
2019-04-11T09:49:45.369Z,23.00
2019-04-11T09:52:22.753Z,23.00
2019-04-11T09:54:50.827Z,23.40
2019-04-11T09:57:18.927Z,23.40
2019-04-11T09:59:56.035Z,23.20
2019-04-11T10:02:25.352Z,23.10
2019-04-11T10:04:52.820Z,23.50
2019-04-11T10:07:28.133Z,24.00
2019-04-11T10:10:02.549Z,24.50
2019-04-11T10:12:40.485Z,24.80
2019-04-11T10:15:09.197Z,24.70
2019-04-11T10:17:38.106Z,24.60
2019-04-11T10:20:04.842Z,24.60
2019-04-11T10:22:36.172Z,24.90
2019-04-11T10:25:19.133Z,24.60
2019-04-11T10:27:51.035Z,24.30
2019-04-11T10:30:37.709Z,23.70
2019-04-11T10:33:14.973Z,23.50
2019-04-11T10:36:01.207Z,22.90
2019-04-11T10:38:28.653Z,22.40
2019-04-11T10:41:00.856Z,22.20
2019-04-11T10:43:27.097Z,22.20
2019-04-11T10:46:11.280Z,22.10
2019-04-11T10:48:49.142Z,22.20
2019-04-11T10:51:18.374Z,22.40
2019-04-11T10:53:44.541Z,23.00
2019-04-11T10:56:15.972Z,23.30
2019-04-11T10:58:44.781Z,22.90
2019-04-11T11:01:15.753Z,22.80
2019-04-11T11:03:49.776Z,23.10
2019-04-11T11:06:27.480Z,23.00
2019-04-11T11:09:12.811Z,22.50
2019-04-11T11:11:44.208Z,22.30
2019-04-11T11:14:29.306Z,22.00
2019-04-11T11:17:15.572Z,21.80
2019-04-11T11:20:11.918Z,21.80
2019-04-11T11:22:44.742Z,21.80
2019-04-11T11:25:16.974Z,22.30
2019-04-11T11:27:45.778Z,21.90
2019-04-11T11:30:27.367Z,22.00
2019-04-11T11:32:53.936Z,22.20
2019-04-11T11:35:34.280Z,22.50
2019-04-11T11:38:01.939Z,22.70
2019-04-11T11:40:56.207Z,23.00
2019-04-11T11:43:25.265Z,23.30
2019-04-11T11:46:10.632Z,23.60
2019-04-11T11:48:39.661Z,23.70
2019-04-11T11:51:13.741Z,23.90
2019-04-11T11:53:48.871Z,24.20
2019-04-11T11:56:15.915Z,24.40
2019-04-11T11:58:45.317Z,24.50
2019-04-11T12:01:14.097Z,24.40
2019-04-11T12:03:48.789Z,24.40
2019-04-11T12:06:19.746Z,24.40
2019-04-11T12:09:02.498Z,24.40
2019-04-11T12:11:28.770Z,24.50
2019-04-11T12:14:13.754Z,25.20
2019-04-11T12:16:45.006Z,24.70
2019-04-11T12:19:16.039Z,24.90
2019-04-11T12:21:41.100Z,25.10
2019-04-11T12:24:18.117Z,25.20
2019-04-11T12:26:52.445Z,25.30
2019-04-11T12:29:27.900Z,25.30
2019-04-11T12:31:56.343Z,25.30
2019-04-11T12:34:24.386Z,25.40
2019-04-11T12:36:53.031Z,25.40
2019-04-11T12:39:37.892Z,25.50
2019-04-11T12:42:08.729Z,25.60
2019-04-11T12:44:36.769Z,25.80
2019-04-11T12:47:19.895Z,25.90
2019-04-11T12:49:53.116Z,25.90
2019-04-11T12:52:36.135Z,25.90
2019-04-11T12:55:09.454Z,25.80
2019-04-11T12:57:54.387Z,25.60
2019-04-11T13:00:37.815Z,25.70
2019-04-11T13:03:08.874Z,25.70
2019-04-11T13:05:39.897Z,25.80
2019-04-11T13:08:24.841Z,25.80
2019-04-11T13:10:50.974Z,25.80
2019-04-11T13:13:19.051Z,25.80
2019-04-11T13:15:47.895Z,25.80
2019-04-11T13:18:18.875Z,25.90
2019-04-11T13:20:46.908Z,26.10
2019-04-11T13:23:27.338Z,26.10
2019-04-11T13:25:55.413Z,26.10
2019-04-11T13:28:21.891Z,26.30
2019-04-11T13:31:06.694Z,26.30
2019-04-11T13:33:32.860Z,26.40
2019-04-11T13:36:06.869Z,26.30
2019-04-11T13:38:34.951Z,26.40
2019-04-11T13:41:02.995Z,26.50
2019-04-11T13:43:33.965Z,26.60
2019-04-11T13:46:04.920Z,26.70
2019-04-11T13:48:48.038Z,26.70
2019-04-11T13:51:19.334Z,26.80
2019-04-11T13:54:04.317Z,26.80
2019-04-11T13:56:35.368Z,26.80
2019-04-11T13:59:03.424Z,27.00
2019-04-11T14:01:32.342Z,27.20
2019-04-11T14:04:03.202Z,27.70
2019-04-11T14:06:29.412Z,27.20
2019-04-11T14:08:59.299Z,27.20
2019-04-11T14:11:27.532Z,27.30
2019-04-11T14:13:54.347Z,27.40
2019-04-11T14:16:24.641Z,27.30
2019-04-11T14:19:07.041Z,27.30
2019-04-11T14:21:32.695Z,27.10
2019-04-11T14:24:00.964Z,27.00
2019-04-11T14:26:29.324Z,26.90
2019-04-11T14:28:56.292Z,26.80
2019-04-11T14:31:40.918Z,26.80
2019-04-11T14:34:25.971Z,26.80
2019-04-11T14:37:08.857Z,26.60
2019-04-11T14:39:42.973Z,26.70
2019-04-11T14:42:17.007Z,26.70
2019-04-11T14:44:44.103Z,26.80
2019-04-11T14:47:27.145Z,27.10
2019-04-11T14:49:57.900Z,26.90
2019-04-11T14:52:41.237Z,26.90
2019-04-11T14:55:08.721Z,27.00
2019-04-11T14:57:39.886Z,27.10
2019-04-11T15:00:13.689Z,27.10
2019-04-11T15:02:56.689Z,27.10
2019-04-11T15:05:33.481Z,27.00
2019-04-11T15:07:59.708Z,27.00
2019-04-11T15:10:33.703Z,27.00
2019-04-11T15:12:59.870Z,27.00
2019-04-11T15:15:30.839Z,27.00
2019-04-11T15:17:58.885Z,26.80
2019-04-11T15:20:33.866Z,27.10
2019-04-11T15:23:06.702Z,27.10
2019-04-11T15:25:32.971Z,27.10
2019-04-11T15:28:01.086Z,27.10
2019-04-11T15:30:29.174Z,27.20
2019-04-11T15:32:57.247Z,27.30
2019-04-11T15:35:23.397Z,27.30
2019-04-11T15:38:09.010Z,27.30
2019-04-11T15:40:35.464Z,27.40
2019-04-11T15:43:06.402Z,27.40
2019-04-11T15:45:35.070Z,27.40
2019-04-11T15:48:03.137Z,27.40
2019-04-11T15:50:47.744Z,27.40
2019-04-11T15:53:15.786Z,27.40
2019-04-11T15:56:02.067Z,27.50
2019-04-11T15:58:30.127Z,27.50
2019-04-11T16:01:07.023Z,27.50
2019-04-11T16:03:33.221Z,27.50
2019-04-11T16:06:04.106Z,27.50
2019-04-11T16:08:31.996Z,27.50
2019-04-11T16:11:12.168Z,27.60
2019-04-11T16:13:38.883Z,27.70
2019-04-11T16:16:11.652Z,27.70
2019-04-11T16:18:39.259Z,27.80
2019-04-11T16:21:18.119Z,27.80
2019-04-11T16:23:39.958Z,27.80
2019-04-11T16:26:08.323Z,27.80
2019-04-11T16:28:48.297Z,27.90
2019-04-11T16:31:14.461Z,27.90
2019-04-11T16:33:45.736Z,28.00
2019-04-11T16:36:12.827Z,28.00
2019-04-11T16:38:43.794Z,28.10
2019-04-11T16:41:28.948Z,28.20
2019-04-11T16:44:09.092Z,28.10
2019-04-11T16:46:40.135Z,28.20
2019-04-11T16:49:06.333Z,28.20
2019-04-11T16:51:32.486Z,29.70
2019-04-11T16:53:58.643Z,29.00
2019-04-11T16:56:24.803Z,33.40
2019-04-11T16:58:50.999Z,37.00
2019-04-11T17:01:17.102Z,37.70
2019-04-11T17:03:44.101Z,43.30
2019-04-11T17:06:12.228Z,38.80
2019-04-11T17:08:51.538Z,32.20
2019-04-11T17:11:19.039Z,28.60
2019-04-11T17:13:45.375Z,28.60
2019-04-11T17:16:12.622Z,28.60
2019-04-11T17:18:39.084Z,28.60
2019-04-11T17:21:07.863Z,28.60
2019-04-11T17:23:33.296Z,28.70
2019-04-11T17:25:59.433Z,28.60
2019-04-11T17:28:25.596Z,29.20
2019-04-11T17:30:54.927Z,28.90
2019-04-11T17:33:19.829Z,28.80
2019-04-11T17:35:45.989Z,28.80
2019-04-11T17:38:12.170Z,28.90
2019-04-11T17:40:39.555Z,28.80
2019-04-11T17:43:06.353Z,28.80
2019-04-11T17:45:32.781Z,28.70
2019-04-11T17:47:58.985Z,29.20
2019-04-11T17:50:25.153Z,28.70
2019-04-11T17:52:54.507Z,28.80
2019-04-11T17:55:19.372Z,28.80
2019-04-11T17:57:45.551Z,28.90
2019-04-11T18:00:21.365Z,28.90
2019-04-11T18:02:47.787Z,29.00
2019-04-11T18:05:16.672Z,29.00
2019-04-11T18:07:42.091Z,29.50
2019-04-11T18:10:08.454Z,29.10
2019-04-11T18:12:34.603Z,29.20
2019-04-11T18:15:02.299Z,29.30
2019-04-11T18:17:28.918Z,29.30
2019-04-11T18:19:55.075Z,29.40
2019-04-11T18:22:21.222Z,29.40
2019-04-11T18:24:49.841Z,29.40
2019-04-11T18:27:15.882Z,29.40
2019-04-11T18:29:42.047Z,29.50
2019-04-11T18:32:08.202Z,29.60
2019-04-11T18:34:34.414Z,30.00
2019-04-11T18:37:02.217Z,29.60
2019-04-11T18:39:28.648Z,29.60
2019-04-11T18:41:57.548Z,29.70
2019-04-11T18:44:23.227Z,29.70
2019-04-11T18:46:49.403Z,29.80
2019-04-11T18:49:15.555Z,29.90
2019-04-11T18:51:41.685Z,29.80
2019-04-11T18:54:07.953Z,29.90
2019-04-11T18:56:34.194Z,30.00
2019-04-11T18:59:03.546Z,29.80
2019-04-11T19:01:28.858Z,29.80
2019-04-11T19:03:55.407Z,29.70
2019-04-11T19:06:27.636Z,29.80
2019-04-11T19:08:50.332Z,29.70
2019-04-11T19:11:16.960Z,30.20
2019-04-11T19:13:46.742Z,29.70
2019-04-11T19:16:13.774Z,29.80
2019-04-11T19:18:40.028Z,29.80
2019-04-11T19:21:06.688Z,29.80
2019-04-11T19:23:32.850Z,29.80
2019-04-11T19:25:59.105Z,29.90
2019-04-11T19:28:25.731Z,29.80
2019-04-11T19:30:53.989Z,29.80
2019-04-11T19:33:20.029Z,29.90
2019-04-11T19:35:46.502Z,29.90
2019-04-11T19:38:23.862Z,29.90
2019-04-11T19:40:50.447Z,29.90
2019-04-11T19:43:18.932Z,30.00
2019-04-11T19:45:45.277Z,30.00
2019-04-11T19:48:11.427Z,29.90
2019-04-11T19:50:37.673Z,30.00
2019-04-11T19:53:03.847Z,29.90
2019-04-11T19:55:47.235Z,29.90
2019-04-11T19:58:15.787Z,30.00
2019-04-11T20:00:42.261Z,30.00
2019-04-11T20:03:08.601Z,30.00
2019-04-11T20:05:35.264Z,30.00
2019-04-11T20:08:04.574Z,30.00
2019-04-11T20:10:31.360Z,30.00
2019-04-11T20:12:59.085Z,30.00
2019-04-11T20:15:36.692Z,29.60
2019-04-11T20:17:54.214Z,30.00
2019-04-11T20:20:20.374Z,30.00
2019-04-11T20:22:58.261Z,30.00
2019-04-11T20:25:16.285Z,30.00
2019-04-11T20:27:42.709Z,30.00
2019-04-11T20:30:09.273Z,30.00
2019-04-11T20:32:35.475Z,30.00
2019-04-11T20:35:01.614Z,30.10
2019-04-11T20:37:38.759Z,30.10
2019-04-11T20:39:55.912Z,30.20
2019-04-11T20:42:24.195Z,30.30
2019-04-11T20:44:50.425Z,30.30
2019-04-11T20:47:16.977Z,30.40
2019-04-11T20:49:48.920Z,30.40
2019-04-11T20:52:15.072Z,30.50
2019-04-11T20:54:41.211Z,30.40
2019-04-11T20:57:11.872Z,30.40
2019-04-11T20:59:41.236Z,30.50
2019-04-11T21:02:04.232Z,30.50
2019-04-11T21:04:31.306Z,30.50
2019-04-11T21:07:01.781Z,30.50
2019-04-11T21:09:26.273Z,30.50
2019-04-11T21:11:52.410Z,30.60
2019-04-11T21:14:18.676Z,30.50
2019-04-11T21:16:44.800Z,31.00
2019-04-11T21:19:11.287Z,30.40
2019-04-11T21:21:37.429Z,30.50
2019-04-11T21:24:03.653Z,30.50
2019-04-11T21:26:29.801Z,30.60
2019-04-11T21:28:58.768Z,30.60
2019-04-11T21:31:24.112Z,30.60
2019-04-11T21:33:50.305Z,30.70
2019-04-11T21:36:16.452Z,30.70
2019-04-11T21:38:42.650Z,30.70
2019-04-11T21:41:09.132Z,30.10
2019-04-11T21:43:36.183Z,30.70
2019-04-11T21:46:04.101Z,30.80
2019-04-11T21:48:31.054Z,30.80
2019-04-11T21:50:57.217Z,30.80
2019-04-11T21:53:23.490Z,30.80
2019-04-11T21:55:49.913Z,30.80
2019-04-11T21:58:19.265Z,30.90
2019-04-11T22:00:51.704Z,30.80
2019-04-11T22:03:18.670Z,30.80
2019-04-11T22:05:44.915Z,31.00
2019-04-11T22:08:11.113Z,30.80
2019-04-11T22:10:40.115Z,30.80
2019-04-11T22:13:05.379Z,30.80
2019-04-11T22:15:31.693Z,30.90
2019-04-11T22:17:57.825Z,30.90
2019-04-11T22:20:24.025Z,30.90
2019-04-11T22:22:50.168Z,31.00
2019-04-11T22:25:16.385Z,31.00
2019-04-11T22:27:42.545Z,31.00
2019-04-11T22:30:10.935Z,31.00
2019-04-11T22:32:37.075Z,31.00
2019-04-11T22:35:04.474Z,31.10
2019-04-11T22:37:30.688Z,31.00
2019-04-11T22:39:56.909Z,31.00
2019-04-11T22:42:23.046Z,31.00
2019-04-11T22:44:49.244Z,31.00
2019-04-11T22:47:15.386Z,31.00
2019-04-11T22:49:41.580Z,31.00
2019-04-11T22:52:07.708Z,31.00
2019-04-11T22:54:33.868Z,31.00
2019-04-11T22:57:00.061Z,31.00
2019-04-11T22:59:26.553Z,31.00
2019-04-11T23:01:54.560Z,31.00
2019-04-11T23:04:20.728Z,31.10
2019-04-11T23:06:47.797Z,31.00
2019-04-11T23:09:16.683Z,31.10
2019-04-11T23:11:44.549Z,31.10
2019-04-11T23:14:10.461Z,31.20
2019-04-11T23:16:36.656Z,31.20
2019-04-11T23:19:02.807Z,31.20
2019-04-11T23:21:28.994Z,31.30
2019-04-11T23:23:55.134Z,31.40
2019-04-11T23:26:21.369Z,31.50
2019-04-11T23:28:47.515Z,31.60
2019-04-11T23:31:14.462Z,31.60
2019-04-11T23:33:40.601Z,31.70
2019-04-11T23:36:06.791Z,31.70
2019-04-11T23:38:32.961Z,31.90
2019-04-11T23:40:59.359Z,32.50
2019-04-11T23:43:25.512Z,32.00
2019-04-11T23:45:51.830Z,32.10
2019-04-11T23:48:18.361Z,32.10
2019-04-11T23:50:44.491Z,32.20
2019-04-11T23:53:10.683Z,32.20
2019-04-11T23:55:36.824Z,32.20
2019-04-11T23:58:03.011Z,32.70
